Time;durP1;ratioP1;P1;durP2;ratioP2;P2;SDS_P1;SDS_P2;PMS_P1;PMS_P2;Temp;Humidity;BMP_temperature;BMP_pressure;BME280_temperature;BME280_humidity;BME280_pressure;Samples;Min_cycle;Max_cycle;Signal;HPM_P1;HPM_P2
2024/03/12 00:01:55;;;;;;;1999.90;999.90;;;;;;;;;;6126954;23;20026;-91
2024/03/12 00:04:22;;;;;;;1999.90;999.90;;;;;;;;;;6126349;23;20045;-91
2024/03/12 00:06:49;;;;;;;1999.90;999.90;;;;;;;;;;6100958;23;20076;-91
2024/03/12 00:09:17;;;;;;;1999.90;999.90;;;;;;;;;;6126463;23;20060;-91
2024/03/12 00:11:45;;;;;;;1999.90;999.90;;;;;;;;;;6126587;23;20029;-91
2024/03/12 00:14:12;;;;;;;1999.90;999.90;;;;;;;;;;6125554;23;20022;-91
2024/03/12 00:16:40;;;;;;;1999.90;999.90;;;;;;;;;;6126388;23;20029;-91
2024/03/12 00:19:09;;;;;;;1999.90;999.90;;;;;;;;;;6125708;23;20029;-90
2024/03/12 00:21:36;;;;;;;1999.90;999.90;;;;;;;;;;6125359;23;20112;-90
2024/03/12 00:24:04;;;;;;;1999.90;999.90;;;;;;;;;;6126221;23;20108;-91
2024/03/12 00:26:31;;;;;;;1999.90;999.90;;;;;;;;;;6125926;23;20109;-91
2024/03/12 00:28:59;;;;;;;1999.90;999.90;;;;;;;;;;6125312;23;20121;-90
2024/03/12 00:31:26;;;;;;;1999.90;999.90;;;;;;;;;;6126292;23;20101;-90
2024/03/12 00:33:52;;;;;;;1999.90;999.90;;;;;;;;;;6127768;23;20355;-90
2024/03/12 00:36:19;;;;;;;1999.90;999.90;;;;;;;;;;6125750;23;20032;-91
2024/03/12 00:38:46;;;;;;;1999.90;999.90;;;;;;;;;;6125560;23;20030;-91
2024/03/12 00:41:14;;;;;;;1999.90;999.90;;;;;;;;;;6125201;23;20045;-91
2024/03/12 00:43:42;;;;;;;1999.90;999.90;;;;;;;;;;6124654;23;20026;-90
2024/03/12 00:46:11;;;;;;;1999.90;999.90;;;;;;;;;;6124533;23;20029;-90
2024/03/12 00:48:37;;;;;;;1999.90;999.90;;;;;;;;;;6125511;23;20025;-91
2024/03/12 00:51:05;;;;;;;1999.90;999.90;;;;;;;;;;6124937;23;20022;-89
2024/03/12 00:53:31;;;;;;;1999.90;999.90;;;;;;;;;;6125097;23;20451;-90
2024/03/12 00:55:58;;;;;;;1999.90;999.90;;;;;;;;;;6125615;23;20029;-91
2024/03/12 00:58:24;;;;;;;1999.90;999.90;;;;;;;;;;6124905;23;20110;-90
2024/03/12 01:00:53;;;;;;;1999.90;999.90;;;;;;;;;;6124962;23;20104;-90
2024/03/12 01:03:21;;;;;;;1999.90;999.90;;;;;;;;;;6124970;23;20113;-90
2024/03/12 01:05:48;;;;;;;1999.90;999.90;;;;;;;;;;6124438;23;20455;-90
2024/03/12 01:08:14;;;;;;;1999.90;999.90;;;;;;;;;;6125715;23;20451;-90
2024/03/12 01:10:40;;;;;;;1999.90;999.90;;;;;;;;;;6124105;23;20077;-90
2024/03/12 01:13:08;;;;;;;1999.90;999.90;;;;;;;;;;6124416;23;20057;-91
2024/03/12 01:15:35;;;;;;;1999.90;999.90;;;;;;;;;;6124862;23;20077;-90
2024/03/12 01:18:03;;;;;;;1999.90;999.90;;;;;;;;;;6125016;23;20057;-90
2024/03/12 01:20:34;;;;;;;1999.90;999.90;;;;;;;;;;6125045;23;20029;-90
2024/03/12 01:23:01;;;;;;;1999.90;999.90;;;;;;;;;;6124341;23;20477;-91
2024/03/12 01:25:29;;;;;;;1999.90;999.90;;;;;;;;;;6125811;23;20018;-91
2024/03/12 01:27:55;;;;;;;1999.90;999.90;;;;;;;;;;6124240;23;20583;-90
2024/03/12 01:30:26;;;;;;;1999.90;999.90;;;;;;;;;;6123695;23;20029;-90
2024/03/12 01:32:53;;;;;;;1999.90;999.90;;;;;;;;;;6124352;23;20101;-90
2024/03/12 01:35:21;;;;;;;1999.90;999.90;;;;;;;;;;6124532;23;20468;-90
2024/03/12 01:37:51;;;;;;;1999.90;999.90;;;;;;;;;;6128166;23;20021;-90
2024/03/12 01:40:22;;;;;;;1999.90;999.90;;;;;;;;;;6130334;23;20057;-90
2024/03/12 01:42:49;;;;;;;1999.90;999.90;;;;;;;;;;6129329;23;20520;-90
2024/03/12 01:45:17;;;;;;;1999.90;999.90;;;;;;;;;;6126266;23;20032;-90
2024/03/12 01:52:34;;;;;;;1999.90;999.90;;;;;;;;;;6123485;23;20045;-89
2024/03/12 01:55:02;;;;;;;1999.90;999.90;;;;;;;;;;6125377;23;20306;-90
2024/03/12 01:57:29;;;;;;;1999.90;999.90;;;;;;;;;;6126183;23;20030;-90
2024/03/12 01:59:55;;;;;;;1999.90;999.90;;;;;;;;;;6123706;23;20022;-90
2024/03/12 02:02:22;;;;;;;1999.90;999.90;;;;;;;;;;6123760;23;20022;-90
2024/03/12 02:04:48;;;;;;;1999.90;999.90;;;;;;;;;;6124096;23;20030;-90
2024/03/12 02:07:15;;;;;;;1999.90;999.90;;;;;;;;;;6123313;23;20026;-90
2024/03/12 02:09:43;;;;;;;1999.90;999.90;;;;;;;;;;6124113;23;20026;-90
2024/03/12 02:12:11;;;;;;;1999.90;999.90;;;;;;;;;;6124089;23;20026;-90
2024/03/12 02:14:37;;;;;;;1999.90;999.90;;;;;;;;;;6124249;23;20018;-90
2024/03/12 02:17:05;;;;;;;1999.90;999.90;;;;;;;;;;6124013;23;20334;-90
2024/03/12 02:19:33;;;;;;;1999.90;999.90;;;;;;;;;;6124420;23;20064;-91
2024/03/12 02:22:00;;;;;;;1999.90;999.90;;;;;;;;;;6124003;23;20046;-91
2024/03/12 02:24:29;;;;;;;1999.90;999.90;;;;;;;;;;6123958;23;20319;-90
2024/03/12 02:26:56;;;;;;;1999.90;999.90;;;;;;;;;;6124424;23;20109;-90
2024/03/12 02:29:22;;;;;;;1999.90;999.90;;;;;;;;;;6124064;23;20032;-91
2024/03/12 02:31:49;;;;;;;1999.90;999.90;;;;;;;;;;6123623;23;20021;-91
2024/03/12 02:34:15;;;;;;;1999.90;999.90;;;;;;;;;;6123426;23;20022;-90
2024/03/12 02:39:22;;;;;;;1999.90;999.90;;;;;;;;;;6123114;23;20014;-90
2024/03/12 02:41:50;;;;;;;1999.90;999.90;;;;;;;;;;6123262;23;20014;-90
2024/03/12 02:44:17;;;;;;;1999.90;999.90;;;;;;;;;;6122456;23;20125;-91
2024/03/12 02:46:46;;;;;;;1999.90;999.90;;;;;;;;;;6121580;23;20113;-91
2024/03/12 02:49:13;;;;;;;1999.90;999.90;;;;;;;;;;6122127;23;20441;-90
2024/03/12 02:51:40;;;;;;;1999.90;999.90;;;;;;;;;;6123329;23;20449;-90
2024/03/12 02:54:07;;;;;;;1999.90;999.90;;;;;;;;;;6097629;23;20024;-91
2024/03/12 02:56:33;;;;;;;1999.90;999.90;;;;;;;;;;6121726;23;20026;-91
2024/03/12 02:59:01;;;;;;;1999.90;999.90;;;;;;;;;;6124173;23;20026;-92
2024/03/12 03:01:28;;;;;;;1999.90;999.90;;;;;;;;;;6123981;23;20030;-92
2024/03/12 03:03:57;;;;;;;1999.90;999.90;;;;;;;;;;6122455;23;20058;-93
2024/03/12 03:06:24;;;;;;;1999.90;999.90;;;;;;;;;;6123956;23;20097;-92
2024/03/12 03:08:51;;;;;;;1999.90;999.90;;;;;;;;;;6098758;23;20037;-92
2024/03/12 03:11:18;;;;;;;1999.90;999.90;;;;;;;;;;6098963;23;20513;-92
2024/03/12 03:13:44;;;;;;;1999.90;999.90;;;;;;;;;;6100176;23;20022;-92
2024/03/12 03:16:12;;;;;;;1999.90;999.90;;;;;;;;;;6124478;23;20352;-93
2024/03/12 03:18:39;;;;;;;1999.90;999.90;;;;;;;;;;6126671;23;20032;-93
2024/03/12 03:21:07;;;;;;;1999.90;999.90;;;;;;;;;;6126527;23;20436;-93
2024/03/12 03:23:39;;;;;;;1999.90;999.90;;;;;;;;;;6127201;23;20028;-92
2024/03/12 03:26:06;;;;;;;1999.90;999.90;;;;;;;;;;6126409;23;20449;-92
2024/03/12 03:28:32;;;;;;;1999.90;999.90;;;;;;;;;;6125661;23;20037;-92
2024/03/12 03:30:59;;;;;;;1999.90;999.90;;;;;;;;;;6126472;23;20468;-93
2024/03/12 03:33:27;;;;;;;1999.90;999.90;;;;;;;;;;6126479;23;20022;-93
2024/03/12 03:35:59;;;;;;;1999.90;999.90;;;;;;;;;;6126893;23;20077;-92
2024/03/12 03:38:28;;;;;;;1999.90;999.90;;;;;;;;;;6126172;23;20479;-92
2024/03/12 03:40:56;;;;;;;1999.90;999.90;;;;;;;;;;6127486;23;20037;-92
2024/03/12 03:43:22;;;;;;;1999.90;999.90;;;;;;;;;;6126419;23;20096;-93
2024/03/12 03:45:49;;;;;;;1999.90;999.90;;;;;;;;;;6126035;23;20056;-94
2024/03/12 03:48:15;;;;;;;1999.90;999.90;;;;;;;;;;6125835;23;20022;-93
2024/03/12 03:50:43;;;;;;;1999.90;999.90;;;;;;;;;;6125380;23;20048;-93
2024/03/12 03:53:10;;;;;;;1999.90;999.90;;;;;;;;;;6125724;23;20061;-93
2024/03/12 03:55:38;;;;;;;1999.90;999.90;;;;;;;;;;6126011;23;20520;-93
2024/03/12 03:58:06;;;;;;;1999.90;999.90;;;;;;;;;;6126053;23;20535;-92
2024/03/12 04:00:35;;;;;;;1999.90;999.90;;;;;;;;;;6126324;23;20026;-93
2024/03/12 04:03:02;;;;;;;1999.90;999.90;;;;;;;;;;6125265;23;20034;-93
2024/03/12 04:05:29;;;;;;;1999.90;999.90;;;;;;;;;;6125355;23;20029;-93
2024/03/12 04:07:57;;;;;;;1999.90;999.90;;;;;;;;;;6124625;23;20341;-92
2024/03/12 04:10:24;;;;;;;1999.90;999.90;;;;;;;;;;6125293;23;20084;-92
2024/03/12 04:12:55;;;;;;;1999.90;999.90;;;;;;;;;;6125188;23;20052;-92
2024/03/12 04:15:22;;;;;;;1999.90;999.90;;;;;;;;;;6126434;23;20030;-92
2024/03/12 04:17:49;;;;;;;1999.90;999.90;;;;;;;;;;6126334;23;20077;-93
2024/03/12 04:20:16;;;;;;;1999.90;999.90;;;;;;;;;;6128618;23;20116;-92
2024/03/12 04:22:45;;;;;;;1999.90;999.90;;;;;;;;;;6127597;23;20022;-93
2024/03/12 04:25:13;;;;;;;1999.90;999.90;;;;;;;;;;6125761;23;20282;-93
2024/03/12 04:27:40;;;;;;;1999.90;999.90;;;;;;;;;;6125602;23;20021;-93
2024/03/12 04:30:09;;;;;;;1999.90;999.90;;;;;;;;;;6125063;23;20026;-91
2024/03/12 04:32:35;;;;;;;1999.90;999.90;;;;;;;;;;6124941;23;20018;-93
2024/03/12 04:35:04;;;;;;;1999.90;999.90;;;;;;;;;;6124920;23;20029;-93
2024/03/12 04:37:32;;;;;;;1999.90;999.90;;;;;;;;;;6124999;23;20357;-93
2024/03/12 04:39:59;;;;;;;1999.90;999.90;;;;;;;;;;6124756;23;20026;-93
2024/03/12 04:42:28;;;;;;;1999.90;999.90;;;;;;;;;;6125575;23;20026;-94
2024/03/12 04:44:56;;;;;;;1999.90;999.90;;;;;;;;;;6125139;23;20024;-94
2024/03/12 04:47:22;;;;;;;1999.90;999.90;;;;;;;;;;6124871;23;20062;-94
2024/03/12 04:49:49;;;;;;;1999.90;999.90;;;;;;;;;;6124860;23;20440;-92
2024/03/12 04:52:16;;;;;;;1999.90;999.90;;;;;;;;;;6125022;23;20028;-93
2024/03/12 04:54:43;;;;;;;1999.90;999.90;;;;;;;;;;6125800;23;20022;-93
2024/03/12 04:57:10;;;;;;;1999.90;999.90;;;;;;;;;;6124591;23;20026;-92
2024/03/12 04:59:38;;;;;;;1999.90;999.90;;;;;;;;;;6124509;23;20032;-93
2024/03/12 05:02:04;;;;;;;1999.90;999.90;;;;;;;;;;6124516;23;20082;-92
2024/03/12 05:04:32;;;;;;;1999.90;999.90;;;;;;;;;;6124434;23;20477;-93
2024/03/12 05:06:58;;;;;;;1999.90;999.90;;;;;;;;;;6124451;23;20026;-92
2024/03/12 05:09:25;;;;;;;1999.90;999.90;;;;;;;;;;6123604;23;20105;-92
2024/03/12 05:11:52;;;;;;;1999.90;999.90;;;;;;;;;;6124700;23;20034;-91
2024/03/12 05:14:19;;;;;;;1999.90;999.90;;;;;;;;;;6125393;23;20079;-91
2024/03/12 05:16:47;;;;;;;1999.90;999.90;;;;;;;;;;6124166;23;20339;-91
2024/03/12 05:19:14;;;;;;;1999.90;999.90;;;;;;;;;;6124671;23;20399;-91
2024/03/12 05:21:41;;;;;;;1999.90;999.90;;;;;;;;;;6123911;23;20033;-90
2024/03/12 05:24:08;;;;;;;1999.90;999.90;;;;;;;;;;6124613;23;20025;-91
2024/03/12 05:26:43;;;;;;;1999.90;999.90;;;;;;;;;;6124319;23;20026;-89
2024/03/12 05:29:10;;;;;;;1999.90;999.90;;;;;;;;;;6123343;23;20468;-92
2024/03/12 05:31:38;;;;;;;1999.90;999.90;;;;;;;;;;6123785;23;20029;-91
2024/03/12 05:34:14;;;;;;;1999.90;999.90;;;;;;;;;;6124226;23;20022;-92
2024/03/12 05:36:41;;;;;;;1999.90;999.90;;;;;;;;;;6124601;23;20076;-92
2024/03/12 05:39:18;;;;;;;1999.90;999.90;;;;;;;;;;6124802;23;20132;-92
2024/03/12 05:48:06;;;;;;;1999.90;999.90;;;;;;;;;;6124142;23;20061;-92
2024/03/12 05:50:08;;;;;;;1999.90;999.90;;;;;;;;;;6125009;23;20037;-91
2024/03/12 05:52:34;;;;;;;1999.90;999.90;;;;;;;;;;6125314;23;20037;-91
2024/03/12 05:55:01;;;;;;;1999.90;999.90;;;;;;;;;;6124260;23;20022;-91
2024/03/12 05:57:28;;;;;;;1999.90;999.90;;;;;;;;;;6124631;23;20077;-92
2024/03/12 05:59:55;;;;;;;1999.90;999.90;;;;;;;;;;6124798;23;20448;-91
2024/03/12 06:02:22;;;;;;;1999.90;999.90;;;;;;;;;;6124067;23;20105;-94
2024/03/12 06:04:49;;;;;;;1999.90;999.90;;;;;;;;;;6124528;23;20511;-93
2024/03/12 06:07:18;;;;;;;1999.90;999.90;;;;;;;;;;6123967;23;20033;-93
2024/03/12 06:09:45;;;;;;;1999.90;999.90;;;;;;;;;;6124717;23;20104;-91
2024/03/12 06:12:12;;;;;;;1999.90;999.90;;;;;;;;;;6124876;23;20040;-92
2024/03/12 06:14:39;;;;;;;1999.90;999.90;;;;;;;;;;6124861;23;20370;-92
2024/03/12 06:17:05;;;;;;;1999.90;999.90;;;;;;;;;;6124876;23;20032;-92
2024/03/12 06:19:32;;;;;;;1999.90;999.90;;;;;;;;;;6125392;23;20065;-93
2024/03/12 06:21:59;;;;;;;1999.90;999.90;;;;;;;;;;6127598;23;20032;-92
2024/03/12 06:24:27;;;;;;;1999.90;999.90;;;;;;;;;;6127028;23;20467;-92
2024/03/12 06:26:53;;;;;;;1999.90;999.90;;;;;;;;;;6126743;23;20453;-92
2024/03/12 06:29:20;;;;;;;1999.90;999.90;;;;;;;;;;6124609;23;20060;-93
2024/03/12 06:31:47;;;;;;;1999.90;999.90;;;;;;;;;;6124740;23;20030;-91
2024/03/12 06:34:14;;;;;;;1999.90;999.90;;;;;;;;;;6123903;23;20026;-92
2024/03/12 06:36:41;;;;;;;1999.90;999.90;;;;;;;;;;6124642;23;20034;-93
2024/03/12 06:39:07;;;;;;;1999.90;999.90;;;;;;;;;;6127471;23;20022;-92
2024/03/12 06:41:36;;;;;;;1999.90;999.90;;;;;;;;;;6124735;23;20047;-92
2024/03/12 06:44:07;;;;;;;1999.90;999.90;;;;;;;;;;6124069;23;20079;-92
2024/03/12 06:46:34;;;;;;;1999.90;999.90;;;;;;;;;;6125436;23;20520;-92
2024/03/12 06:49:00;;;;;;;1999.90;999.90;;;;;;;;;;6126343;23;20124;-92
2024/03/12 06:51:31;;;;;;;1999.90;999.90;;;;;;;;;;6126787;23;20048;-92
2024/03/12 06:53:59;;;;;;;1999.90;999.90;;;;;;;;;;6126261;23;20350;-92
2024/03/12 06:56:28;;;;;;;1999.90;999.90;;;;;;;;;;6126081;23;20053;-93
2024/03/12 06:58:56;;;;;;;1999.90;999.90;;;;;;;;;;6125975;23;20030;-92
2024/03/12 07:01:25;;;;;;;1999.90;999.90;;;;;;;;;;6126888;23;20452;-92
2024/03/12 07:03:51;;;;;;;1999.90;999.90;;;;;;;;;;6126882;23;20030;-93
2024/03/12 07:06:19;;;;;;;1999.90;999.90;;;;;;;;;;6127857;23;20354;-94
2024/03/12 07:08:46;;;;;;;1999.90;999.90;;;;;;;;;;6126908;23;20021;-93
2024/03/12 07:11:14;;;;;;;1999.90;999.90;;;;;;;;;;6127678;23;20062;-92
2024/03/12 07:13:43;;;;;;;1999.90;999.90;;;;;;;;;;6126932;23;20022;-91
2024/03/12 07:16:11;;;;;;;1999.90;999.90;;;;;;;;;;6125921;23;20053;-92
2024/03/12 07:18:38;;;;;;;1999.90;999.90;;;;;;;;;;6126476;23;20572;-92
2024/03/12 07:21:05;;;;;;;1999.90;999.90;;;;;;;;;;6126410;23;20398;-92
2024/03/12 07:23:32;;;;;;;1999.90;999.90;;;;;;;;;;6125766;23;20737;-92
2024/03/12 07:25:59;;;;;;;1999.90;999.90;;;;;;;;;;6125417;23;20028;-91
2024/03/12 07:28:26;;;;;;;1999.90;999.90;;;;;;;;;;6126543;23;20336;-93
2024/03/12 07:30:54;;;;;;;1999.90;999.90;;;;;;;;;;6126382;23;20068;-92
2024/03/12 07:33:23;;;;;;;1999.90;999.90;;;;;;;;;;6125115;23;20061;-94
2024/03/12 07:35:49;;;;;;;1999.90;999.90;;;;;;;;;;6125885;23;20480;-92
2024/03/12 07:38:16;;;;;;;1999.90;999.90;;;;;;;;;;6125891;23;20078;-92
2024/03/12 07:40:43;;;;;;;1999.90;999.90;;;;;;;;;;6126409;23;20057;-94
2024/03/12 07:43:11;;;;;;;1999.90;999.90;;;;;;;;;;6126339;23;20037;-92
2024/03/12 07:45:43;;;;;;;1999.90;999.90;;;;;;;;;;6126338;23;20022;-93
2024/03/12 07:48:10;;;;;;;1999.90;999.90;;;;;;;;;;6126389;23;20025;-92
2024/03/12 07:50:38;;;;;;;1999.90;999.90;;;;;;;;;;6126551;23;20044;-92
2024/03/12 07:53:06;;;;;;;1999.90;999.90;;;;;;;;;;6125632;23;20030;-92
2024/03/12 07:55:35;;;;;;;1999.90;999.90;;;;;;;;;;6125506;23;20033;-92
2024/03/12 07:58:02;;;;;;;1999.90;999.90;;;;;;;;;;6126122;23;20040;-93
2024/03/12 08:00:29;;;;;;;1999.90;999.90;;;;;;;;;;6126356;23;20026;-94
2024/03/12 08:02:56;;;;;;;1999.90;999.90;;;;;;;;;;6126087;23;20029;-93
2024/03/12 08:05:23;;;;;;;1999.90;999.90;;;;;;;;;;6126304;23;20260;-93
2024/03/12 08:07:52;;;;;;;1999.90;999.90;;;;;;;;;;6126199;23;20113;-93
2024/03/12 08:10:18;;;;;;;1999.90;999.90;;;;;;;;;;6126557;23;20018;-93
2024/03/12 08:12:45;;;;;;;1999.90;999.90;;;;;;;;;;6125487;23;20022;-92
2024/03/12 08:15:13;;;;;;;1999.90;999.90;;;;;;;;;;6127199;23;20100;-92
2024/03/12 08:17:40;;;;;;;1999.90;999.90;;;;;;;;;;6126643;23;20508;-91
2024/03/12 08:20:10;;;;;;;1999.90;999.90;;;;;;;;;;6126264;23;20025;-92
2024/03/12 08:22:38;;;;;;;1999.90;999.90;;;;;;;;;;6126251;23;20030;-95
2024/03/12 08:25:07;;;;;;;1999.90;999.90;;;;;;;;;;6125882;23;20025;-92
2024/03/12 08:27:34;;;;;;;1999.90;999.90;;;;;;;;;;6127303;23;20133;-92
2024/03/12 08:30:00;;;;;;;1999.90;999.90;;;;;;;;;;6127137;23;20026;-94
2024/03/12 08:32:28;;;;;;;1999.90;999.90;;;;;;;;;;6127553;23;20400;-93
2024/03/12 08:34:55;;;;;;;1999.90;999.90;;;;;;;;;;6126902;23;20018;-91
2024/03/12 08:37:22;;;;;;;1999.90;999.90;;;;;;;;;;6125591;23;20481;-94
2024/03/12 08:39:49;;;;;;;1999.90;999.90;;;;;;;;;;6126046;23;20080;-91
2024/03/12 08:42:17;;;;;;;1999.90;999.90;;;;;;;;;;6126058;23;20014;-92
2024/03/12 08:44:44;;;;;;;1999.90;999.90;;;;;;;;;;6125562;23;20018;-94
2024/03/12 08:47:11;;;;;;;1999.90;999.90;;;;;;;;;;6125874;23;20465;-92
2024/03/12 08:49:37;;;;;;;1999.90;999.90;;;;;;;;;;6125919;23;20033;-92
2024/03/12 08:52:05;;;;;;;1999.90;999.90;;;;;;;;;;6125838;23;20033;-92
2024/03/12 08:54:31;;;;;;;1999.90;999.90;;;;;;;;;;6126735;23;20026;-93
2024/03/12 08:56:59;;;;;;;1999.90;999.90;;;;;;;;;;6126300;23;20044;-93
2024/03/12 08:59:27;;;;;;;1999.90;999.90;;;;;;;;;;6125252;23;20041;-91
2024/03/12 09:01:57;;;;;;;1999.90;999.90;;;;;;;;;;6125986;23;20465;-93
2024/03/12 09:04:24;;;;;;;1999.90;999.90;;;;;;;;;;6127848;23;20093;-93
2024/03/12 09:06:51;;;;;;;1999.90;999.90;;;;;;;;;;6127976;23;20022;-93
2024/03/12 09:09:18;;;;;;;1999.90;999.90;;;;;;;;;;6125869;23;20030;-92
2024/03/12 09:11:46;;;;;;;1999.90;999.90;;;;;;;;;;6126752;23;20072;-93
2024/03/12 09:14:13;;;;;;;1999.90;999.90;;;;;;;;;;6126802;23;20483;-91
2024/03/12 09:16:41;;;;;;;1999.90;999.90;;;;;;;;;;6125837;23;20032;-92
2024/03/12 09:19:08;;;;;;;1999.90;999.90;;;;;;;;;;6125867;23;20020;-92
2024/03/12 09:21:35;;;;;;;1999.90;999.90;;;;;;;;;;6124874;23;20022;-91
2024/03/12 09:24:04;;;;;;;1999.90;999.90;;;;;;;;;;6124296;23;20030;-93
2024/03/12 09:26:32;;;;;;;1999.90;999.90;;;;;;;;;;6125535;23;20030;-92
2024/03/12 09:28:59;;;;;;;1999.90;999.90;;;;;;;;;;6124543;23;20133;-92
2024/03/12 09:31:26;;;;;;;1999.90;999.90;;;;;;;;;;6124622;23;20022;-92
2024/03/12 09:33:55;;;;;;;1999.90;999.90;;;;;;;;;;6126099;23;20049;-93
2024/03/12 09:36:21;;;;;;;1999.90;999.90;;;;;;;;;;6125079;23;20109;-92
2024/03/12 09:38:50;;;;;;;1999.90;999.90;;;;;;;;;;6126006;23;20026;-92
2024/03/12 09:41:18;;;;;;;1999.90;999.90;;;;;;;;;;6125382;23;20026;-92
2024/03/12 09:43:45;;;;;;;1999.90;999.90;;;;;;;;;;6126284;23;20030;-93
2024/03/12 09:46:12;;;;;;;1999.90;999.90;;;;;;;;;;6125931;23;20018;-93
2024/03/12 09:48:39;;;;;;;1999.90;999.90;;;;;;;;;;6125373;23;20441;-92
2024/03/12 09:51:08;;;;;;;1999.90;999.90;;;;;;;;;;6125694;23;20062;-92
2024/03/12 09:53:36;;;;;;;1999.90;999.90;;;;;;;;;;6125065;23;20052;-91
2024/03/12 09:56:06;;;;;;;1999.90;999.90;;;;;;;;;;6125128;23;20050;-93
2024/03/12 09:58:33;;;;;;;1999.90;999.90;;;;;;;;;;6124689;23;20022;-93
2024/03/12 10:01:00;;;;;;;1999.90;999.90;;;;;;;;;;6124725;23;20026;-94
2024/03/12 10:03:27;;;;;;;1999.90;999.90;;;;;;;;;;6125826;23;20097;-93
2024/03/12 10:05:54;;;;;;;1999.90;999.90;;;;;;;;;;6126806;23;20030;-93
2024/03/12 10:08:28;;;;;;;1999.90;999.90;;;;;;;;;;6127595;23;20026;-92
2024/03/12 10:10:55;;;;;;;1999.90;999.90;;;;;;;;;;6126038;23;20073;-93
2024/03/12 10:13:23;;;;;;;1999.90;999.90;;;;;;;;;;6125089;23;20029;-95
2024/03/12 10:15:51;;;;;;;1999.90;999.90;;;;;;;;;;6125659;23;20018;-93
2024/03/12 10:18:18;;;;;;;1999.90;999.90;;;;;;;;;;6129638;23;20116;-93
2024/03/12 10:20:46;;;;;;;1999.90;999.90;;;;;;;;;;6131493;23;20018;-92
2024/03/12 10:23:15;;;;;;;1999.90;999.90;;;;;;;;;;6130614;23;20033;-92
2024/03/12 10:25:45;;;;;;;1999.90;999.90;;;;;;;;;;6126102;23;20104;-92
2024/03/12 10:28:14;;;;;;;1999.90;999.90;;;;;;;;;;6124268;23;20026;-86
2024/03/12 10:30:42;;;;;;;1999.90;999.90;;;;;;;;;;6123772;23;20046;-87
2024/03/12 10:33:13;;;;;;;1999.90;999.90;;;;;;;;;;6122372;23;20022;-86
2024/03/12 10:35:44;;;;;;;1999.90;999.90;;;;;;;;;;6123410;23;20030;-89
2024/03/12 10:38:11;;;;;;;1999.90;999.90;;;;;;;;;;6123601;23;20383;-89
2024/03/12 10:40:38;;;;;;;1999.90;999.90;;;;;;;;;;6123402;23;20029;-89
2024/03/12 10:43:08;;;;;;;1999.90;999.90;;;;;;;;;;6123520;23;20088;-89
2024/03/12 10:45:35;;;;;;;1999.90;999.90;;;;;;;;;;6126325;23;20089;-88
2024/03/12 10:48:06;;;;;;;1999.90;999.90;;;;;;;;;;6125594;23;20018;-86
2024/03/12 10:50:34;;;;;;;1999.90;999.90;;;;;;;;;;6147763;23;20065;-88
2024/03/12 10:53:01;;;;;;;1999.90;999.90;;;;;;;;;;6144126;23;20077;-88
2024/03/12 10:55:32;;;;;;;1999.90;999.90;;;;;;;;;;6142783;23;20053;-88
2024/03/12 10:58:02;;;;;;;1999.90;999.90;;;;;;;;;;6125176;23;20021;-87
2024/03/12 11:00:30;;;;;;;1999.90;999.90;;;;;;;;;;6123273;23;20147;-88
2024/03/12 11:02:57;;;;;;;1999.90;999.90;;;;;;;;;;6123162;23;20360;-89
2024/03/12 11:05:26;;;;;;;1999.90;999.90;;;;;;;;;;6122607;23;20428;-89
2024/03/12 11:07:54;;;;;;;1999.90;999.90;;;;;;;;;;6123356;23;20033;-88
2024/03/12 11:10:22;;;;;;;1999.90;999.90;;;;;;;;;;6122635;23;20084;-84
2024/03/12 11:12:48;;;;;;;1999.90;999.90;;;;;;;;;;6123015;23;20025;-88
2024/03/12 11:15:15;;;;;;;1999.90;999.90;;;;;;;;;;6123583;23;20038;-88
2024/03/12 11:17:49;;;;;;;1999.90;999.90;;;;;;;;;;6123088;23;20105;-89
2024/03/12 11:20:17;;;;;;;1999.90;999.90;;;;;;;;;;6123578;23;20037;-88
2024/03/12 11:22:44;;;;;;;1999.90;999.90;;;;;;;;;;6123082;23;20381;-88
2024/03/12 11:25:14;;;;;;;1999.90;999.90;;;;;;;;;;6123572;23;20349;-89
2024/03/12 11:27:43;;;;;;;1999.90;999.90;;;;;;;;;;6123376;23;20319;-88
2024/03/12 11:30:16;;;;;;;1999.90;999.90;;;;;;;;;;6122906;23;20026;-86
2024/03/12 11:32:45;;;;;;;1999.90;999.90;;;;;;;;;;6123784;23;20018;-88
2024/03/12 11:35:32;;;;;;;1999.90;999.90;;;;;;;;;;6124157;23;20032;-88
2024/03/12 11:38:06;;;;;;;1999.90;999.90;;;;;;;;;;6124585;23;20025;-90
2024/03/12 11:40:36;;;;;;;1999.90;999.90;;;;;;;;;;6124875;23;20026;-88
2024/03/12 11:43:03;;;;;;;1999.90;999.90;;;;;;;;;;6125506;23;20025;-90
2024/03/12 11:45:39;;;;;;;1999.90;999.90;;;;;;;;;;6125285;23;20425;-88
2024/03/12 11:48:07;;;;;;;1999.90;999.90;;;;;;;;;;6125192;23;20089;-88
2024/03/12 11:50:36;;;;;;;1999.90;999.90;;;;;;;;;;6124623;23;20053;-89
2024/03/12 11:53:21;;;;;;;1999.90;999.90;;;;;;;;;;6124797;23;20445;-89
2024/03/12 11:55:57;;;;;;;1999.90;999.90;;;;;;;;;;6125132;23;20029;-88
2024/03/12 11:58:26;;;;;;;1999.90;999.90;;;;;;;;;;6125056;23;20025;-89
2024/03/12 12:00:53;;;;;;;1999.90;999.90;;;;;;;;;;6125063;23;20113;-89
2024/03/12 12:03:20;;;;;;;1999.90;999.90;;;;;;;;;;6125066;23;20341;-88
2024/03/12 12:05:50;;;;;;;1999.90;999.90;;;;;;;;;;6125199;23;20053;-88
2024/03/12 12:08:18;;;;;;;1999.90;999.90;;;;;;;;;;6125242;23;20109;-87
2024/03/12 12:10:56;;;;;;;1999.90;999.90;;;;;;;;;;6124383;23;20052;-89
2024/03/12 12:13:23;;;;;;;1999.90;999.90;;;;;;;;;;6127559;23;20032;-90
2024/03/12 12:15:56;;;;;;;1999.90;999.90;;;;;;;;;;6127307;23;20412;-90
2024/03/12 12:18:25;;;;;;;1999.90;999.90;;;;;;;;;;6125466;23;20029;-90
2024/03/12 12:20:54;;;;;;;1999.90;999.90;;;;;;;;;;6125550;23;20026;-91
2024/03/12 12:23:23;;;;;;;1999.90;999.90;;;;;;;;;;6125526;23;20402;-89
2024/03/12 12:25:50;;;;;;;1999.90;999.90;;;;;;;;;;6125586;23;20101;-90
2024/03/12 12:28:18;;;;;;;1999.90;999.90;;;;;;;;;;6125579;23;20022;-89
2024/03/12 12:30:45;;;;;;;1999.90;999.90;;;;;;;;;;6125896;23;20028;-91
2024/03/12 12:33:13;;;;;;;1999.90;999.90;;;;;;;;;;6127939;23;20021;-90
2024/03/12 12:35:42;;;;;;;1999.90;999.90;;;;;;;;;;6127033;23;20033;-90
2024/03/12 12:38:11;;;;;;;1999.90;999.90;;;;;;;;;;6125071;23;20025;-91
2024/03/12 12:40:39;;;;;;;1999.90;999.90;;;;;;;;;;6126437;23;20030;-92
2024/03/12 12:43:06;;;;;;;1999.90;999.90;;;;;;;;;;6129449;23;20030;-89
2024/03/12 12:45:34;;;;;;;1999.90;999.90;;;;;;;;;;6125221;23;20032;-89
2024/03/12 12:48:04;;;;;;;1999.90;999.90;;;;;;;;;;6125469;23;20022;-90
2024/03/12 12:50:33;;;;;;;1999.90;999.90;;;;;;;;;;6125432;23;20026;-90
2024/03/12 12:53:02;;;;;;;1999.90;999.90;;;;;;;;;;6126866;23;20424;-91
2024/03/12 12:55:30;;;;;;;1999.90;999.90;;;;;;;;;;6126150;23;20026;-90
2024/03/12 12:58:01;;;;;;;1999.90;999.90;;;;;;;;;;6125510;23;20022;-91
2024/03/12 13:00:28;;;;;;;1999.90;999.90;;;;;;;;;;6125261;23;20097;-90
2024/03/12 13:03:10;;;;;;;1999.90;999.90;;;;;;;;;;6126641;23;20032;-91
2024/03/12 13:05:39;;;;;;;1999.90;999.90;;;;;;;;;;6125394;23;20028;-91
2024/03/12 13:08:19;;;;;;;1999.90;999.90;;;;;;;;;;6124744;23;20030;-91
2024/03/12 13:10:57;;;;;;;1999.90;999.90;;;;;;;;;;6125753;23;20033;-88
2024/03/12 13:13:25;;;;;;;1999.90;999.90;;;;;;;;;;6126876;23;20100;-91
2024/03/12 13:15:51;;;;;;;1999.90;999.90;;;;;;;;;;6126359;23;20280;-92
2024/03/12 13:18:19;;;;;;;1999.90;999.90;;;;;;;;;;6127518;23;20028;-90
2024/03/12 13:20:45;;;;;;;1999.90;999.90;;;;;;;;;;6137941;23;20022;-87
2024/03/12 13:23:12;;;;;;;1999.90;999.90;;;;;;;;;;6144258;23;20026;-89
2024/03/12 13:25:42;;;;;;;1999.90;999.90;;;;;;;;;;6145440;23;20030;-87
2024/03/12 13:28:10;;;;;;;1999.90;999.90;;;;;;;;;;6146254;23;20100;-88
2024/03/12 13:30:37;;;;;;;1999.90;999.90;;;;;;;;;;6128392;23;20021;-91
2024/03/12 13:33:04;;;;;;;1999.90;999.90;;;;;;;;;;6127909;23;20033;-91
2024/03/12 13:35:31;;;;;;;1999.90;999.90;;;;;;;;;;6127571;23;20028;-89
2024/03/12 13:37:58;;;;;;;1999.90;999.90;;;;;;;;;;6128034;23;20022;-90
2024/03/12 13:40:26;;;;;;;1999.90;999.90;;;;;;;;;;6125809;23;20428;-91
2024/03/12 13:42:53;;;;;;;1999.90;999.90;;;;;;;;;;6127012;23;20528;-92
2024/03/12 13:45:21;;;;;;;1999.90;999.90;;;;;;;;;;6126658;23;20029;-91
2024/03/12 13:47:48;;;;;;;1999.90;999.90;;;;;;;;;;6126872;23;20028;-92
2024/03/12 13:50:15;;;;;;;1999.90;999.90;;;;;;;;;;6131640;23;20032;-90
2024/03/12 13:52:41;;;;;;;1999.90;999.90;;;;;;;;;;6146405;23;20017;-87
2024/03/12 13:55:11;;;;;;;1999.90;999.90;;;;;;;;;;6146593;23;20040;-89
2024/03/12 13:57:38;;;;;;;1999.90;999.90;;;;;;;;;;6147776;23;20020;-90
2024/03/12 14:00:09;;;;;;;1999.90;999.90;;;;;;;;;;6149366;23;20504;-89